createdAt,value
2022-10-28T00:01:24.712Z,45.60
2022-10-28T00:03:57.177Z,45.70
2022-10-28T00:06:37.181Z,45.60
2022-10-28T00:09:09.790Z,45.70
2022-10-28T00:11:52.964Z,45.80
2022-10-28T00:14:23.269Z,45.70
2022-10-28T00:16:53.239Z,45.80
2022-10-28T00:19:23.489Z,45.80
2022-10-28T00:21:54.087Z,46.10
2022-10-28T00:24:41.711Z,46.10
2022-10-28T00:27:11.637Z,46.00
2022-10-28T00:29:41.622Z,46.20
2022-10-28T00:32:11.605Z,45.50
2022-10-28T00:34:41.629Z,46.20
2022-10-28T00:37:11.512Z,46.20
2022-10-28T00:39:41.395Z,46.10
2022-10-28T00:42:12.290Z,46.40
2022-10-28T00:44:51.470Z,46.30
2022-10-28T00:47:21.751Z,46.50
2022-10-28T00:49:52.535Z,46.10
2022-10-28T00:52:24.727Z,46.10
2022-10-28T00:54:54.833Z,46.20
2022-10-28T00:57:26.781Z,46.40
2022-10-28T01:00:18.048Z,46.50
2022-10-28T01:02:52.164Z,46.60
2022-10-28T01:05:24.559Z,46.60
2022-10-28T01:07:56.166Z,46.60
2022-10-28T01:11:10.061Z,46.90
2022-10-28T01:13:40.721Z,46.70
2022-10-28T01:16:42.690Z,46.80
2022-10-28T01:19:29.632Z,46.80
2022-10-28T01:22:26.617Z,46.90
2022-10-28T01:25:16.222Z,47.30
2022-10-28T01:28:10.249Z,45.90
2022-10-28T01:30:58.566Z,46.20
2022-10-28T01:33:55.938Z,46.80
2022-10-28T01:36:29.029Z,46.30
2022-10-28T01:39:41.920Z,46.40
2022-10-28T01:42:32.942Z,46.40
2022-10-28T01:45:16.310Z,46.20
2022-10-28T01:48:12.360Z,46.80
2022-10-28T01:51:06.271Z,46.70
2022-10-28T01:53:39.206Z,46.90
2022-10-28T01:56:11.888Z,46.30
2022-10-28T01:58:41.825Z,46.30
2022-10-28T02:01:36.955Z,46.60
2022-10-28T02:04:07.469Z,47.10
2022-10-28T02:06:37.379Z,47.00
2022-10-28T02:09:10.091Z,46.60
2022-10-28T02:12:13.557Z,46.30
2022-10-28T02:14:46.408Z,46.60
2022-10-28T02:17:19.312Z,46.50
2022-10-28T02:20:10.228Z,46.40
2022-10-28T02:23:14.942Z,46.80
2022-10-28T02:25:53.024Z,46.40
2022-10-28T02:28:43.219Z,46.40
2022-10-28T02:31:42.403Z,46.60
2022-10-28T02:34:15.097Z,46.90
2022-10-28T02:36:47.349Z,46.70
2022-10-28T02:39:17.004Z,46.60
2022-10-28T02:41:57.966Z,46.70
2022-10-28T02:44:30.783Z,46.30
2022-10-28T02:47:02.651Z,46.10
2022-10-28T02:49:32.709Z,46.40
2022-10-28T02:52:04.089Z,46.50
2022-10-28T02:54:54.798Z,46.20
2022-10-28T02:57:40.193Z,46.20
2022-10-28T03:00:12.251Z,46.20
2022-10-28T03:03:15.057Z,46.50
2022-10-28T03:05:45.099Z,45.90
2022-10-28T03:08:15.136Z,45.80
2022-10-28T03:10:45.176Z,46.40
2022-10-28T03:13:17.136Z,46.50
2022-10-28T03:15:55.986Z,46.80
2022-10-28T03:18:27.595Z,47.00
2022-10-28T03:20:59.021Z,46.90
2022-10-28T03:23:30.325Z,46.50
2022-10-28T03:26:02.363Z,46.40
2022-10-28T03:28:50.634Z,46.80
2022-10-28T03:31:38.926Z,46.10
2022-10-28T03:34:08.890Z,46.30
2022-10-28T03:36:38.810Z,46.50
2022-10-28T03:39:30.508Z,46.60
2022-10-28T03:42:00.520Z,46.20
2022-10-28T03:44:30.438Z,47.00
2022-10-28T03:47:00.328Z,46.70
2022-10-28T03:49:30.226Z,47.20
2022-10-28T03:52:00.199Z,47.30
2022-10-28T03:54:30.181Z,47.70
2022-10-28T03:57:00.175Z,47.90
2022-10-28T03:59:30.236Z,47.30
2022-10-28T04:02:01.854Z,48.10
2022-10-28T04:04:31.975Z,47.60
2022-10-28T04:07:01.956Z,47.90
2022-10-28T04:09:32.158Z,48.10
2022-10-28T04:12:02.117Z,48.70
2022-10-28T04:14:32.183Z,48.70
2022-10-28T04:17:02.447Z,48.50
2022-10-28T04:19:32.482Z,49.20
2022-10-28T04:22:02.461Z,49.90
2022-10-28T04:24:32.515Z,50.40
2022-10-28T04:27:02.395Z,51.30
2022-10-28T04:29:33.040Z,51.10
2022-10-28T04:32:03.051Z,50.40
2022-10-28T04:34:32.924Z,50.20
2022-10-28T04:37:02.864Z,50.40
2022-10-28T04:39:32.736Z,50.50
2022-10-28T04:42:02.614Z,50.30
2022-10-28T04:44:32.600Z,50.10
2022-10-28T04:47:02.635Z,50.60
2022-10-28T04:49:35.475Z,51.10
2022-10-28T04:52:09.765Z,50.20
2022-10-28T04:54:42.398Z,49.90
2022-10-28T04:57:12.399Z,50.50
2022-10-28T04:59:42.351Z,50.30
2022-10-28T05:02:12.440Z,50.30
2022-10-28T05:04:45.169Z,50.10
2022-10-28T05:07:15.938Z,50.40
2022-10-28T05:09:52.810Z,50.50
2022-10-28T05:12:22.770Z,50.60
2022-10-28T05:14:53.228Z,50.20
2022-10-28T05:17:23.357Z,50.20
2022-10-28T05:19:55.998Z,50.40
2022-10-28T05:22:25.963Z,51.10
2022-10-28T05:24:55.903Z,50.80
2022-10-28T05:27:25.837Z,50.70
2022-10-28T05:29:55.742Z,50.80
2022-10-28T05:32:25.672Z,50.90
2022-10-28T05:34:55.616Z,51.00
2022-10-28T05:37:25.592Z,50.90
2022-10-28T05:39:55.546Z,50.80
2022-10-28T05:42:25.661Z,50.80
2022-10-28T05:44:55.626Z,50.60
2022-10-28T05:47:25.656Z,50.30
2022-10-28T05:49:55.626Z,50.20
2022-10-28T05:52:27.892Z,50.20
2022-10-28T05:54:57.851Z,50.10
2022-10-28T05:57:28.257Z,50.20
2022-10-28T05:59:58.245Z,50.30
2022-10-28T06:02:28.378Z,50.50
2022-10-28T06:04:58.292Z,50.10
2022-10-28T06:07:29.953Z,49.40
2022-10-28T06:09:59.865Z,49.70
2022-10-28T06:12:28.416Z,49.40
2022-10-28T06:14:58.375Z,49.40
2022-10-28T06:17:28.408Z,49.40
2022-10-28T06:19:58.294Z,49.40
2022-10-28T06:22:28.505Z,50.10
2022-10-28T06:24:58.550Z,49.70
2022-10-28T06:27:28.556Z,49.70
2022-10-28T06:29:58.511Z,49.50
2022-10-28T06:32:28.441Z,49.50
2022-10-28T06:34:58.448Z,49.50
2022-10-28T06:37:28.370Z,49.70
2022-10-28T06:40:10.295Z,49.70
2022-10-28T06:42:40.286Z,48.40
2022-10-28T06:45:10.485Z,48.00
2022-10-28T06:47:42.304Z,48.10
2022-10-28T06:50:12.907Z,48.30
2022-10-28T06:52:43.138Z,48.20
2022-10-28T06:55:14.042Z,48.30
2022-10-28T06:57:44.634Z,48.40
2022-10-28T07:00:15.798Z,48.30
2022-10-28T07:02:46.025Z,48.40
2022-10-28T07:05:18.599Z,48.30
2022-10-28T07:07:48.279Z,48.20
2022-10-28T07:10:19.057Z,48.30
2022-10-28T07:12:49.025Z,48.20
2022-10-28T07:15:19.348Z,48.40
2022-10-28T07:17:59.419Z,47.40
2022-10-28T07:20:30.593Z,47.50
2022-10-28T07:23:04.397Z,48.00
2022-10-28T07:25:35.154Z,47.40
2022-10-28T07:28:05.938Z,47.50
2022-10-28T07:30:36.978Z,47.60
2022-10-28T07:33:07.430Z,47.70
2022-10-28T07:35:37.513Z,47.70
2022-10-28T07:38:08.148Z,47.70
2022-10-28T07:40:39.014Z,47.80
2022-10-28T07:43:10.288Z,48.00
2022-10-28T07:45:41.569Z,47.90
2022-10-28T07:48:11.851Z,46.70
2022-10-28T07:50:43.489Z,43.90
2022-10-28T07:56:04.997Z,41.80
2022-10-28T07:58:38.737Z,42.80
2022-10-28T08:01:12.998Z,42.00
2022-10-28T08:03:44.300Z,41.60
2022-10-28T08:06:20.311Z,40.90
2022-10-28T08:08:54.101Z,41.20
2022-10-28T08:11:25.825Z,39.60
2022-10-28T08:13:57.915Z,40.10
2022-10-28T08:16:33.241Z,38.20
2022-10-28T08:19:06.816Z,37.60
2022-10-28T08:21:37.821Z,37.40
2022-10-28T08:24:08.202Z,37.30
2022-10-28T08:26:38.144Z,37.20
2022-10-28T08:29:10.132Z,36.30
2022-10-28T08:31:40.724Z,37.30
2022-10-28T08:34:10.832Z,37.00
2022-10-28T08:36:41.877Z,38.90
2022-10-28T08:39:13.156Z,38.30
2022-10-28T08:41:47.473Z,37.00
2022-10-28T08:45:10.886Z,37.80
2022-10-28T08:48:03.215Z,38.20
2022-10-28T08:50:35.706Z,38.70
2022-10-28T08:53:16.047Z,39.40
2022-10-28T08:55:49.261Z,40.20
2022-10-28T08:58:21.368Z,41.10
2022-10-28T09:00:57.039Z,40.70
2022-10-28T09:03:28.557Z,40.80
2022-10-28T09:06:08.619Z,40.90
2022-10-28T09:08:42.274Z,41.20
2022-10-28T09:11:41.038Z,41.40
2022-10-28T09:14:28.572Z,41.70
2022-10-28T09:17:21.381Z,41.80
2022-10-28T09:19:55.630Z,42.20
2022-10-28T09:22:28.080Z,42.00
2022-10-28T09:25:18.788Z,42.10
2022-10-28T09:27:58.508Z,42.00
2022-10-28T09:30:52.555Z,41.80
2022-10-28T09:33:40.357Z,42.40
2022-10-28T09:36:21.838Z,42.50
2022-10-28T09:38:53.100Z,43.00
2022-10-28T09:41:26.281Z,43.00
2022-10-28T09:44:09.056Z,42.80
2022-10-28T09:46:38.978Z,43.20
2022-10-28T09:49:13.619Z,43.20
2022-10-28T09:52:15.270Z,43.70
2022-10-28T09:54:52.573Z,43.70
2022-10-28T09:57:22.686Z,43.60
2022-10-28T09:59:52.691Z,43.50
2022-10-28T10:02:33.591Z,43.50
2022-10-28T10:05:04.189Z,44.00
2022-10-28T10:07:42.493Z,44.50
2022-10-28T10:10:24.184Z,43.50
2022-10-28T10:12:55.462Z,44.10
2022-10-28T10:15:50.606Z,44.40
2022-10-28T10:18:35.751Z,44.40
2022-10-28T10:21:07.167Z,44.60
2022-10-28T10:26:17.281Z,44.60
2022-10-28T10:28:53.055Z,45.10
2022-10-28T10:31:27.977Z,44.80
2022-10-28T10:33:58.766Z,44.80
2022-10-28T10:36:32.596Z,45.30
2022-10-28T10:39:03.668Z,44.90
2022-10-28T10:41:43.671Z,45.60
2022-10-28T10:44:26.277Z,44.80
2022-10-28T10:47:06.098Z,44.30
2022-10-28T10:49:37.099Z,44.80
2022-10-28T10:52:19.198Z,45.00
2022-10-28T10:55:00.496Z,46.00
2022-10-28T10:57:30.514Z,45.70
2022-10-28T11:00:00.480Z,44.70
2022-10-28T11:02:35.911Z,45.50
2022-10-28T11:05:10.828Z,45.60
2022-10-28T11:07:41.682Z,45.80
2022-10-28T11:10:25.430Z,44.80
2022-10-28T11:13:04.416Z,45.40
2022-10-28T11:15:34.604Z,45.70
2022-10-28T11:18:13.784Z,45.70
2022-10-28T11:20:56.713Z,45.70
2022-10-28T11:23:55.475Z,46.00
2022-10-28T11:26:25.428Z,45.20
2022-10-28T11:29:15.018Z,45.90
2022-10-28T11:32:21.858Z,46.20
2022-10-28T11:35:05.671Z,46.20
2022-10-28T11:38:17.047Z,46.20
2022-10-28T11:41:05.175Z,46.60
2022-10-28T11:43:40.522Z,46.50
2022-10-28T11:46:33.194Z,46.50
2022-10-28T11:49:20.832Z,46.70
2022-10-28T11:52:13.807Z,46.40
2022-10-28T11:55:04.525Z,46.50
2022-10-28T11:58:10.913Z,46.40
2022-10-28T12:00:58.169Z,46.20
2022-10-28T12:03:35.510Z,45.90
2022-10-28T12:06:23.979Z,46.00
2022-10-28T12:08:59.819Z,45.80
2022-10-28T12:11:40.091Z,45.70
2022-10-28T12:14:36.117Z,45.90
2022-10-28T12:17:14.144Z,45.70
2022-10-28T12:19:55.560Z,46.20
2022-10-28T12:22:57.071Z,45.80
2022-10-28T12:25:32.424Z,45.90
2022-10-28T12:28:08.383Z,45.80
2022-10-28T12:30:39.239Z,45.70
2022-10-28T12:33:12.155Z,45.70
2022-10-28T12:35:47.495Z,45.70
2022-10-28T12:38:23.236Z,45.50
2022-10-28T12:40:54.834Z,45.80
2022-10-28T12:43:45.815Z,45.80
2022-10-28T12:46:31.409Z,45.50
2022-10-28T12:49:05.767Z,45.40
2022-10-28T12:51:38.705Z,45.00
2022-10-28T12:54:13.363Z,46.00
2022-10-28T12:56:58.946Z,46.00
2022-10-28T12:59:34.082Z,46.20
2022-10-28T13:02:04.228Z,46.30
2022-10-28T13:04:34.301Z,46.10
2022-10-28T13:07:27.032Z,46.00
2022-10-28T13:10:02.598Z,46.00
2022-10-28T13:12:48.325Z,46.10
2022-10-28T13:15:36.725Z,46.00
2022-10-28T13:18:35.893Z,46.10
2022-10-28T13:21:42.724Z,45.90
2022-10-28T13:24:18.888Z,46.10
2022-10-28T13:26:48.871Z,45.80
2022-10-28T13:29:23.182Z,45.90
2022-10-28T13:31:53.057Z,45.80
2022-10-28T13:34:28.460Z,46.00
2022-10-28T13:37:01.302Z,45.90
2022-10-28T13:39:32.866Z,45.70
2022-10-28T13:42:19.295Z,44.30
2022-10-28T13:44:58.660Z,45.20
2022-10-28T13:47:35.525Z,45.00
2022-10-28T13:50:26.089Z,45.30
2022-10-28T13:53:26.785Z,45.90
2022-10-28T13:55:59.692Z,46.00
2022-10-28T13:58:29.712Z,46.80
2022-10-28T14:00:59.637Z,46.50
2022-10-28T14:03:33.229Z,46.00
2022-10-28T14:06:05.839Z,45.70
2022-10-28T14:08:37.068Z,45.40
2022-10-28T14:11:12.711Z,45.70
2022-10-28T14:14:01.731Z,45.70
2022-10-28T14:16:39.961Z,45.90
2022-10-28T14:19:12.980Z,45.80
2022-10-28T14:21:57.634Z,45.60
2022-10-28T14:24:37.863Z,45.60
2022-10-28T14:27:11.104Z,45.90
2022-10-28T14:33:04.160Z,45.70
2022-10-28T14:35:43.898Z,46.00
2022-10-28T14:39:03.106Z,46.00
2022-10-28T14:41:35.963Z,45.90
2022-10-28T14:44:21.023Z,45.80
2022-10-28T14:47:12.171Z,45.70
2022-10-28T14:49:43.534Z,45.70
2022-10-28T14:52:18.431Z,45.40
2022-10-28T14:54:59.362Z,45.60
2022-10-28T14:57:33.626Z,45.50
2022-10-28T15:00:06.609Z,46.00
2022-10-28T15:02:36.897Z,45.60
2022-10-28T15:05:24.549Z,45.30
2022-10-28T15:07:55.164Z,45.70
2022-10-28T15:10:28.469Z,45.70
2022-10-28T15:12:59.438Z,45.20
2022-10-28T15:15:31.933Z,45.50
2022-10-28T15:18:02.011Z,45.70
2022-10-28T15:20:36.878Z,45.40
2022-10-28T15:23:36.544Z,45.30
2022-10-28T15:26:17.964Z,45.60
2022-10-28T15:28:47.947Z,45.70
2022-10-28T15:31:18.869Z,45.90
2022-10-28T15:33:48.745Z,45.80
2022-10-28T15:36:23.721Z,45.70
2022-10-28T15:39:09.585Z,45.50
2022-10-28T15:41:43.333Z,45.90
2022-10-28T15:44:31.803Z,46.30
2022-10-28T15:47:02.062Z,46.30
2022-10-28T15:49:40.137Z,46.20
2022-10-28T15:52:18.779Z,45.70
2022-10-28T15:55:01.343Z,44.80
2022-10-28T15:57:47.718Z,45.70
2022-10-28T16:00:32.069Z,46.40
2022-10-28T16:03:06.687Z,46.60
2022-10-28T16:05:36.620Z,46.60
2022-10-28T16:08:09.027Z,46.60
2022-10-28T16:10:44.359Z,46.70
2022-10-28T16:13:23.916Z,46.60
2022-10-28T16:16:00.133Z,46.60
2022-10-28T16:18:31.153Z,46.60
2022-10-28T16:21:01.388Z,46.30
2022-10-28T16:23:35.881Z,45.90
2022-10-28T16:26:08.419Z,45.70
2022-10-28T16:28:42.731Z,45.60
2022-10-28T16:31:19.155Z,45.30
2022-10-28T16:33:49.436Z,45.40
2022-10-28T16:36:19.519Z,45.20
2022-10-28T16:38:49.711Z,45.60
2022-10-28T16:41:20.446Z,45.30
2022-10-28T16:43:50.915Z,45.30
2022-10-28T16:46:21.127Z,45.50
2022-10-28T16:48:51.129Z,45.50
2022-10-28T16:51:21.100Z,45.40
2022-10-28T16:53:52.051Z,45.50
2022-10-28T16:56:22.315Z,45.50
2022-10-28T16:58:52.433Z,45.40
2022-10-28T17:01:23.210Z,45.40
2022-10-28T17:03:53.418Z,45.40
2022-10-28T17:06:23.373Z,45.30
2022-10-28T17:09:08.472Z,45.40
2022-10-28T17:11:38.408Z,45.30
2022-10-28T17:14:08.317Z,45.40
2022-10-28T17:16:40.713Z,45.30
2022-10-28T17:19:13.221Z,45.40
2022-10-28T17:21:44.416Z,45.40
2022-10-28T17:24:14.486Z,45.20
2022-10-28T17:26:47.388Z,45.40
2022-10-28T17:29:17.296Z,45.10
2022-10-28T17:31:47.186Z,45.20
2022-10-28T17:34:17.133Z,45.40
2022-10-28T17:36:47.096Z,45.20
2022-10-28T17:39:19.709Z,45.10
2022-10-28T17:41:53.272Z,45.30
2022-10-28T17:44:23.419Z,45.20
2022-10-28T17:46:53.626Z,45.20
2022-10-28T17:49:23.629Z,45.20
2022-10-28T17:51:53.871Z,45.10
2022-10-28T17:56:58.539Z,45.10
2022-10-28T17:59:28.474Z,45.10
2022-10-28T18:01:58.483Z,45.10
2022-10-28T18:04:28.758Z,45.10
2022-10-28T18:06:59.324Z,45.10
2022-10-28T18:09:32.795Z,45.20
2022-10-28T18:12:05.456Z,45.10
2022-10-28T18:14:35.495Z,45.30
2022-10-28T18:17:05.501Z,45.00
2022-10-28T18:19:36.589Z,44.90
2022-10-28T18:22:06.478Z,44.80
2022-10-28T18:24:36.375Z,45.00
2022-10-28T18:27:06.398Z,45.00
2022-10-28T18:29:36.260Z,45.00
2022-10-28T18:32:06.295Z,44.90
2022-10-28T18:34:36.295Z,44.90
2022-10-28T18:37:09.119Z,45.00
2022-10-28T18:39:39.437Z,45.00
2022-10-28T18:42:12.223Z,44.80
2022-10-28T18:44:42.587Z,44.80
2022-10-28T18:47:12.610Z,44.80
2022-10-28T18:49:42.737Z,44.80
2022-10-28T18:52:12.798Z,44.80
2022-10-28T18:54:42.712Z,44.80
2022-10-28T18:57:12.647Z,44.70
2022-10-28T19:00:12.383Z,44.70
2022-10-28T19:02:32.630Z,44.70
2022-10-28T19:05:02.666Z,44.50
2022-10-28T19:07:33.243Z,44.20
2022-10-28T19:10:03.419Z,44.40
2022-10-28T19:12:33.411Z,44.40
2022-10-28T19:15:03.362Z,44.40
2022-10-28T19:17:33.338Z,44.50
2022-10-28T19:20:03.281Z,44.50
2022-10-28T19:22:33.254Z,44.40
2022-10-28T19:25:03.198Z,44.20
2022-10-28T19:27:33.681Z,44.30
2022-10-28T19:30:06.627Z,44.50
2022-10-28T19:32:40.478Z,44.30
2022-10-28T19:35:10.902Z,44.30
2022-10-28T19:37:40.812Z,44.40
2022-10-28T19:40:11.263Z,44.40
2022-10-28T19:42:41.373Z,44.40
2022-10-28T19:45:11.943Z,44.20
2022-10-28T19:47:41.907Z,44.00
2022-10-28T19:50:12.024Z,44.80
2022-10-28T19:52:44.600Z,44.10
2022-10-28T19:55:15.184Z,44.10
2022-10-28T19:57:46.610Z,44.10
2022-10-28T20:00:19.067Z,44.20
2022-10-28T20:02:49.431Z,44.10
2022-10-28T20:05:19.440Z,44.10
2022-10-28T20:07:49.316Z,44.10
2022-10-28T20:10:19.240Z,44.10
2022-10-28T20:12:49.157Z,44.10
2022-10-28T20:15:19.155Z,44.00
2022-10-28T20:17:51.684Z,44.00
2022-10-28T20:20:21.673Z,44.10
2022-10-28T20:22:51.682Z,44.00
2022-10-28T20:25:21.672Z,44.00
2022-10-28T20:27:52.109Z,44.00
2022-10-28T20:30:22.217Z,44.40
2022-10-28T20:32:55.627Z,44.20
2022-10-28T20:35:25.801Z,44.10
2022-10-28T20:37:56.091Z,44.10
2022-10-28T20:40:26.252Z,44.00
2022-10-28T20:42:56.513Z,44.20
2022-10-28T20:45:26.975Z,44.00
2022-10-28T20:47:56.955Z,44.10
2022-10-28T20:50:26.879Z,44.00
2022-10-28T20:52:57.370Z,44.10
2022-10-28T20:55:27.554Z,44.10
2022-10-28T20:57:57.476Z,44.20
2022-10-28T21:00:28.548Z,44.10
2022-10-28T21:02:59.968Z,43.90
2022-10-28T21:05:30.416Z,43.80
2022-10-28T21:08:00.603Z,43.90
2022-10-28T21:10:30.520Z,44.00
2022-10-28T21:13:00.466Z,43.90
2022-10-28T21:15:30.616Z,43.90
2022-10-28T21:18:00.535Z,43.70
2022-10-28T21:20:30.656Z,43.70
2022-10-28T21:23:01.475Z,43.70
2022-10-28T21:25:31.438Z,43.90
2022-10-28T21:28:01.777Z,43.60
2022-10-28T21:30:31.860Z,43.70
2022-10-28T21:33:03.621Z,43.80
2022-10-28T21:35:33.849Z,43.70
2022-10-28T21:38:03.804Z,43.70
2022-10-28T21:40:33.676Z,43.60
2022-10-28T21:43:03.661Z,43.60
2022-10-28T21:45:33.625Z,43.70
2022-10-28T21:48:03.511Z,43.90
2022-10-28T21:50:33.445Z,43.50
2022-10-28T21:53:04.846Z,43.60
2022-10-28T21:55:45.992Z,43.50
2022-10-28T21:58:16.906Z,43.60
2022-10-28T22:00:47.197Z,43.70
2022-10-28T22:03:17.399Z,43.30
2022-10-28T22:05:53.342Z,43.50
2022-10-28T22:08:23.234Z,43.40
2022-10-28T22:11:02.649Z,43.20
2022-10-28T22:13:32.628Z,43.40
2022-10-28T22:16:05.150Z,43.30
2022-10-28T22:18:35.852Z,43.40
2022-10-28T22:21:07.267Z,43.20
2022-10-28T22:23:37.931Z,43.20
2022-10-28T22:26:10.123Z,43.10
2022-10-28T22:28:40.207Z,43.10
2022-10-28T22:31:11.574Z,43.00
2022-10-28T22:33:41.583Z,43.20
2022-10-28T22:36:15.904Z,43.10
2022-10-28T22:38:46.039Z,43.10
2022-10-28T22:41:34.241Z,42.90
2022-10-28T22:44:05.830Z,43.10
2022-10-28T22:46:37.750Z,43.10
2022-10-28T22:49:07.639Z,43.20
2022-10-28T22:51:37.588Z,43.00
2022-10-28T22:54:07.571Z,43.00
2022-10-28T22:56:37.574Z,43.20
2022-10-28T22:59:07.656Z,43.00
2022-10-28T23:01:37.718Z,43.00
2022-10-28T23:04:11.909Z,43.10
2022-10-28T23:06:41.800Z,43.10
2022-10-28T23:09:11.796Z,43.00
2022-10-28T23:11:41.705Z,43.00
2022-10-28T23:14:11.606Z,43.20
2022-10-28T23:16:41.475Z,43.00
2022-10-28T23:19:11.365Z,43.00
2022-10-28T23:21:44.030Z,42.90
2022-10-28T23:24:13.932Z,42.80
2022-10-28T23:26:44.650Z,42.70
2022-10-28T23:29:15.328Z,42.70
2022-10-28T23:31:45.167Z,42.70
2022-10-28T23:34:15.078Z,42.90
2022-10-28T23:36:45.122Z,42.90
2022-10-28T23:39:15.128Z,43.00
2022-10-28T23:41:45.037Z,42.70
2022-10-28T23:44:15.296Z,42.90
2022-10-28T23:46:45.220Z,42.80
2022-10-28T23:49:15.142Z,42.80
2022-10-28T23:51:45.143Z,43.00
2022-10-28T23:54:15.062Z,42.60
2022-10-28T23:56:44.933Z,42.70
2022-10-28T23:59:14.962Z,42.70
